sensor_id;sensor_type;location;lat;lon;timestamp;P1;durP1;ratioP1;P2;durP2;ratioP2
63492;SDS011;49638;47.526;10.028;2022-09-03T00:01:09;3.50;;;2.70;;
63492;SDS011;49638;47.526;10.028;2022-09-03T00:08:09;3.03;;;2.63;;
63492;SDS011;49638;47.526;10.028;2022-09-03T00:11:27;4.70;;;3.08;;
63492;SDS011;49638;47.526;10.028;2022-09-03T00:14:45;3.00;;;2.60;;
63492;SDS011;49638;47.526;10.028;2022-09-03T00:21:20;4.47;;;2.88;;
63492;SDS011;49638;47.526;10.028;2022-09-03T00:24:33;4.30;;;3.15;;
63492;SDS011;49638;47.526;10.028;2022-09-03T00:27:41;5.43;;;3.65;;
63492;SDS011;49638;47.526;10.028;2022-09-03T00:31:28;4.30;;;3.05;;
63492;SDS011;49638;47.526;10.028;2022-09-03T00:37:50;6.90;;;4.13;;
63492;SDS011;49638;47.526;10.028;2022-09-03T00:41:00;7.07;;;5.15;;
63492;SDS011;49638;47.526;10.028;2022-09-03T00:44:22;9.00;;;5.90;;
63492;SDS011;49638;47.526;10.028;2022-09-03T01:01:56;3.25;;;2.88;;
63492;SDS011;49638;47.526;10.028;2022-09-03T01:15:09;6.40;;;2.90;;
63492;SDS011;49638;47.526;10.028;2022-09-03T01:25:53;3.95;;;3.30;;
63492;SDS011;49638;47.526;10.028;2022-09-03T01:47:07;5.20;;;3.80;;
63492;SDS011;49638;47.526;10.028;2022-09-03T01:50:26;6.20;;;4.20;;
63492;SDS011;49638;47.526;10.028;2022-09-03T02:00:19;4.13;;;3.42;;
63492;SDS011;49638;47.526;10.028;2022-09-03T02:03:38;3.22;;;2.92;;
63492;SDS011;49638;47.526;10.028;2022-09-03T02:06:44;3.55;;;3.13;;
63492;SDS011;49638;47.526;10.028;2022-09-03T02:09:51;4.10;;;2.70;;
63492;SDS011;49638;47.526;10.028;2022-09-03T02:12:54;3.20;;;2.55;;
63492;SDS011;49638;47.526;10.028;2022-09-03T02:16:16;2.70;;;2.45;;
63492;SDS011;49638;47.526;10.028;2022-09-03T02:19:36;5.30;;;2.70;;
63492;SDS011;49638;47.526;10.028;2022-09-03T02:22:56;6.10;;;3.85;;
63492;SDS011;49638;47.526;10.028;2022-09-03T02:26:05;7.35;;;5.28;;
63492;SDS011;49638;47.526;10.028;2022-09-03T02:29:11;5.07;;;4.50;;
63492;SDS011;49638;47.526;10.028;2022-09-03T02:32:18;5.03;;;4.53;;
63492;SDS011;49638;47.526;10.028;2022-09-03T02:35:25;6.28;;;4.20;;
63492;SDS011;49638;47.526;10.028;2022-09-03T02:38:39;6.68;;;4.35;;
63492;SDS011;49638;47.526;10.028;2022-09-03T02:41:54;5.45;;;4.50;;
63492;SDS011;49638;47.526;10.028;2022-09-03T02:48:37;5.78;;;4.75;;
63492;SDS011;49638;47.526;10.028;2022-09-03T02:51:42;8.57;;;5.53;;
63492;SDS011;49638;47.526;10.028;2022-09-03T02:54:50;5.60;;;5.07;;
63492;SDS011;49638;47.526;10.028;2022-09-03T02:57:56;8.38;;;6.63;;
63492;SDS011;49638;47.526;10.028;2022-09-03T03:01:01;9.05;;;6.93;;
63492;SDS011;49638;47.526;10.028;2022-09-03T03:04:11;9.50;;;6.97;;
63492;SDS011;49638;47.526;10.028;2022-09-03T03:07:14;7.70;;;6.20;;
63492;SDS011;49638;47.526;10.028;2022-09-03T03:10:21;8.07;;;7.10;;
63492;SDS011;49638;47.526;10.028;2022-09-03T03:13:28;9.73;;;7.95;;
63492;SDS011;49638;47.526;10.028;2022-09-03T03:16:43;9.52;;;7.15;;
63492;SDS011;49638;47.526;10.028;2022-09-03T03:19:46;8.50;;;7.30;;
63492;SDS011;49638;47.526;10.028;2022-09-03T03:22:49;7.80;;;4.70;;
63492;SDS011;49638;47.526;10.028;2022-09-03T03:25:52;5.10;;;4.60;;
63492;SDS011;49638;47.526;10.028;2022-09-03T03:28:57;6.18;;;4.72;;
63492;SDS011;49638;47.526;10.028;2022-09-03T03:32:03;5.78;;;4.82;;
63492;SDS011;49638;47.526;10.028;2022-09-03T03:35:11;6.90;;;4.88;;
63492;SDS011;49638;47.526;10.028;2022-09-03T03:38:16;11.50;;;7.63;;
63492;SDS011;49638;47.526;10.028;2022-09-03T03:41:19;7.07;;;6.00;;
63492;SDS011;49638;47.526;10.028;2022-09-03T03:44:26;9.07;;;5.85;;
63492;SDS011;49638;47.526;10.028;2022-09-03T03:47:44;9.43;;;5.60;;
63492;SDS011;49638;47.526;10.028;2022-09-03T03:50:48;7.70;;;5.53;;
63492;SDS011;49638;47.526;10.028;2022-09-03T03:53:56;7.97;;;6.50;;
63492;SDS011;49638;47.526;10.028;2022-09-03T03:57:05;6.80;;;5.53;;
63492;SDS011;49638;47.526;10.028;2022-09-03T04:00:12;5.97;;;5.30;;
63492;SDS011;49638;47.526;10.028;2022-09-03T04:03:18;7.45;;;5.70;;
63492;SDS011;49638;47.526;10.028;2022-09-03T04:06:23;7.43;;;5.95;;
63492;SDS011;49638;47.526;10.028;2022-09-03T04:09:25;7.15;;;5.80;;
63492;SDS011;49638;47.526;10.028;2022-09-03T04:12:31;9.82;;;6.47;;
63492;SDS011;49638;47.526;10.028;2022-09-03T04:15:34;7.78;;;6.50;;
63492;SDS011;49638;47.526;10.028;2022-09-03T04:18:46;8.60;;;7.07;;
63492;SDS011;49638;47.526;10.028;2022-09-03T04:21:52;8.70;;;6.60;;
63492;SDS011;49638;47.526;10.028;2022-09-03T04:24:54;10.82;;;6.97;;
63492;SDS011;49638;47.526;10.028;2022-09-03T04:27:56;10.85;;;6.30;;
63492;SDS011;49638;47.526;10.028;2022-09-03T04:31:00;7.60;;;6.78;;
63492;SDS011;49638;47.526;10.028;2022-09-03T04:34:09;8.40;;;6.95;;
63492;SDS011;49638;47.526;10.028;2022-09-03T04:37:11;9.00;;;7.25;;
63492;SDS011;49638;47.526;10.028;2022-09-03T04:40:16;8.50;;;6.70;;
63492;SDS011;49638;47.526;10.028;2022-09-03T04:43:21;8.85;;;6.18;;
63492;SDS011;49638;47.526;10.028;2022-09-03T04:46:31;7.43;;;6.40;;
63492;SDS011;49638;47.526;10.028;2022-09-03T04:49:36;10.32;;;7.95;;
63492;SDS011;49638;47.526;10.028;2022-09-03T04:52:42;8.00;;;6.28;;
63492;SDS011;49638;47.526;10.028;2022-09-03T04:55:44;9.45;;;6.47;;
63492;SDS011;49638;47.526;10.028;2022-09-03T04:58:46;7.45;;;6.38;;
63492;SDS011;49638;47.526;10.028;2022-09-03T05:01:56;11.65;;;6.65;;
63492;SDS011;49638;47.526;10.028;2022-09-03T05:04:58;9.45;;;6.60;;
63492;SDS011;49638;47.526;10.028;2022-09-03T05:11:07;11.55;;;6.45;;
63492;SDS011;49638;47.526;10.028;2022-09-03T05:14:17;5.97;;;5.10;;
63492;SDS011;49638;47.526;10.028;2022-09-03T05:17:23;8.10;;;5.75;;
63492;SDS011;49638;47.526;10.028;2022-09-03T05:20:38;7.88;;;5.15;;
63492;SDS011;49638;47.526;10.028;2022-09-03T05:23:47;5.97;;;4.93;;
63492;SDS011;49638;47.526;10.028;2022-09-03T05:26:52;7.13;;;5.78;;
63492;SDS011;49638;47.526;10.028;2022-09-03T05:29:54;7.28;;;5.50;;
63492;SDS011;49638;47.526;10.028;2022-09-03T05:32:59;9.30;;;5.93;;
63492;SDS011;49638;47.526;10.028;2022-09-03T05:36:08;7.75;;;5.70;;
63492;SDS011;49638;47.526;10.028;2022-09-03T05:39:10;8.50;;;5.82;;
63492;SDS011;49638;47.526;10.028;2022-09-03T05:42:11;8.05;;;5.75;;
63492;SDS011;49638;47.526;10.028;2022-09-03T05:45:15;6.68;;;5.72;;
63492;SDS011;49638;47.526;10.028;2022-09-03T05:48:16;8.40;;;5.90;;
63492;SDS011;49638;47.526;10.028;2022-09-03T05:51:20;7.07;;;5.82;;
63492;SDS011;49638;47.526;10.028;2022-09-03T05:54:41;7.18;;;5.47;;
63492;SDS011;49638;47.526;10.028;2022-09-03T05:57:44;8.38;;;7.40;;
63492;SDS011;49638;47.526;10.028;2022-09-03T06:00:52;11.05;;;6.65;;
63492;SDS011;49638;47.526;10.028;2022-09-03T06:04:14;7.03;;;6.05;;
63492;SDS011;49638;47.526;10.028;2022-09-03T06:07:17;7.20;;;6.28;;
63492;SDS011;49638;47.526;10.028;2022-09-03T06:10:28;8.80;;;6.78;;
63492;SDS011;49638;47.526;10.028;2022-09-03T06:13:30;8.38;;;6.32;;
63492;SDS011;49638;47.526;10.028;2022-09-03T06:16:35;8.50;;;6.03;;
63492;SDS011;49638;47.526;10.028;2022-09-03T06:19:40;7.55;;;6.43;;
63492;SDS011;49638;47.526;10.028;2022-09-03T06:22:55;7.47;;;5.65;;
63492;SDS011;49638;47.526;10.028;2022-09-03T06:29:15;6.10;;;5.43;;
63492;SDS011;49638;47.526;10.028;2022-09-03T06:32:18;5.53;;;5.00;;
63492;SDS011;49638;47.526;10.028;2022-09-03T06:35:29;7.35;;;5.65;;
63492;SDS011;49638;47.526;10.028;2022-09-03T06:38:32;8.40;;;5.50;;
63492;SDS011;49638;47.526;10.028;2022-09-03T06:41:41;6.22;;;5.30;;
63492;SDS011;49638;47.526;10.028;2022-09-03T06:44:43;5.82;;;5.13;;
63492;SDS011;49638;47.526;10.028;2022-09-03T06:47:57;5.07;;;4.50;;
63492;SDS011;49638;47.526;10.028;2022-09-03T06:51:12;3.50;;;3.20;;
63492;SDS011;49638;47.526;10.028;2022-09-03T06:54:14;3.60;;;3.30;;
63492;SDS011;49638;47.526;10.028;2022-09-03T06:57:25;4.80;;;3.20;;
63492;SDS011;49638;47.526;10.028;2022-09-03T07:00:43;5.82;;;3.90;;
63492;SDS011;49638;47.526;10.028;2022-09-03T07:03:55;4.97;;;4.30;;
63492;SDS011;49638;47.526;10.028;2022-09-03T07:07:04;4.40;;;3.60;;
63492;SDS011;49638;47.526;10.028;2022-09-03T07:10:17;5.50;;;3.55;;
63492;SDS011;49638;47.526;10.028;2022-09-03T07:13:29;7.53;;;4.15;;
63492;SDS011;49638;47.526;10.028;2022-09-03T07:16:38;9.07;;;4.70;;
63492;SDS011;49638;47.526;10.028;2022-09-03T07:19:50;8.07;;;4.85;;
63492;SDS011;49638;47.526;10.028;2022-09-03T07:22:55;6.90;;;5.25;;
63492;SDS011;49638;47.526;10.028;2022-09-03T07:26:13;5.30;;;4.45;;
63492;SDS011;49638;47.526;10.028;2022-09-03T07:29:22;5.18;;;4.10;;
63492;SDS011;49638;47.526;10.028;2022-09-03T07:32:27;4.80;;;4.25;;
63492;SDS011;49638;47.526;10.028;2022-09-03T07:35:35;4.22;;;3.83;;
63492;SDS011;49638;47.526;10.028;2022-09-03T07:38:48;4.80;;;3.35;;
63492;SDS011;49638;47.526;10.028;2022-09-03T07:41:49;3.53;;;3.22;;
63492;SDS011;49638;47.526;10.028;2022-09-03T07:44:52;5.13;;;3.03;;
63492;SDS011;49638;47.526;10.028;2022-09-03T07:47:54;3.67;;;3.25;;
63492;SDS011;49638;47.526;10.028;2022-09-03T07:51:14;3.80;;;3.45;;
63492;SDS011;49638;47.526;10.028;2022-09-03T07:54:26;6.43;;;3.30;;
63492;SDS011;49638;47.526;10.028;2022-09-03T07:57:37;4.47;;;3.88;;
63492;SDS011;49638;47.526;10.028;2022-09-03T08:00:47;4.32;;;3.17;;
63492;SDS011;49638;47.526;10.028;2022-09-03T08:03:54;4.20;;;3.28;;
63492;SDS011;49638;47.526;10.028;2022-09-03T08:07:00;2.90;;;2.70;;
63492;SDS011;49638;47.526;10.028;2022-09-03T08:10:23;3.08;;;2.35;;
63492;SDS011;49638;47.526;10.028;2022-09-03T08:13:30;4.65;;;2.95;;
63492;SDS011;49638;47.526;10.028;2022-09-03T08:16:43;3.47;;;2.78;;
63492;SDS011;49638;47.526;10.028;2022-09-03T08:20:06;3.38;;;2.90;;
63492;SDS011;49638;47.526;10.028;2022-09-03T08:23:14;3.00;;;2.70;;
63492;SDS011;49638;47.526;10.028;2022-09-03T08:26:17;4.05;;;2.58;;
63492;SDS011;49638;47.526;10.028;2022-09-03T08:29:19;3.33;;;2.80;;
63492;SDS011;49638;47.526;10.028;2022-09-03T08:32:23;5.07;;;2.20;;
63492;SDS011;49638;47.526;10.028;2022-09-03T08:35:35;4.07;;;1.88;;
63492;SDS011;49638;47.526;10.028;2022-09-03T08:38:43;2.30;;;2.10;;
63492;SDS011;49638;47.526;10.028;2022-09-03T08:45:19;2.33;;;2.13;;
63492;SDS011;49638;47.526;10.028;2022-09-03T08:48:23;2.63;;;2.20;;
63492;SDS011;49638;47.526;10.028;2022-09-03T08:51:33;2.00;;;1.80;;
63492;SDS011;49638;47.526;10.028;2022-09-03T08:54:38;2.17;;;1.98;;
63492;SDS011;49638;47.526;10.028;2022-09-03T09:01:29;1.90;;;1.80;;
63492;SDS011;49638;47.526;10.028;2022-09-03T09:08:13;2.15;;;1.95;;
63492;SDS011;49638;47.526;10.028;2022-09-03T09:15:18;2.05;;;1.83;;
63492;SDS011;49638;47.526;10.028;2022-09-03T09:21:54;2.67;;;2.20;;
63492;SDS011;49638;47.526;10.028;2022-09-03T09:25:17;2.20;;;2.00;;
63492;SDS011;49638;47.526;10.028;2022-09-03T09:28:22;2.53;;;1.92;;
63492;SDS011;49638;47.526;10.028;2022-09-03T09:31:27;2.95;;;2.42;;
63492;SDS011;49638;47.526;10.028;2022-09-03T09:34:38;2.50;;;2.10;;
63492;SDS011;49638;47.526;10.028;2022-09-03T09:37:51;2.55;;;2.35;;
63492;SDS011;49638;47.526;10.028;2022-09-03T09:41:07;2.25;;;2.05;;
63492;SDS011;49638;47.526;10.028;2022-09-03T09:44:20;2.75;;;2.15;;
63492;SDS011;49638;47.526;10.028;2022-09-03T09:47:27;4.65;;;2.08;;
63492;SDS011;49638;47.526;10.028;2022-09-03T09:50:38;2.25;;;1.98;;
63492;SDS011;49638;47.526;10.028;2022-09-03T09:53:40;3.10;;;1.88;;
63492;SDS011;49638;47.526;10.028;2022-09-03T09:56:46;2.35;;;2.10;;
63492;SDS011;49638;47.526;10.028;2022-09-03T10:00:07;2.67;;;2.30;;
63492;SDS011;49638;47.526;10.028;2022-09-03T10:03:21;2.25;;;2.00;;
63492;SDS011;49638;47.526;10.028;2022-09-03T10:06:27;2.30;;;2.10;;
63492;SDS011;49638;47.526;10.028;2022-09-03T10:13:38;2.38;;;2.10;;
63492;SDS011;49638;47.526;10.028;2022-09-03T10:16:46;2.20;;;2.00;;
63492;SDS011;49638;47.526;10.028;2022-09-03T10:23:25;2.58;;;2.00;;
63492;SDS011;49638;47.526;10.028;2022-09-03T10:26:30;2.53;;;1.88;;
63492;SDS011;49638;47.526;10.028;2022-09-03T10:29:33;2.60;;;1.90;;
63492;SDS011;49638;47.526;10.028;2022-09-03T10:36:24;2.13;;;1.92;;
63492;SDS011;49638;47.526;10.028;2022-09-03T10:42:50;2.40;;;2.20;;
63492;SDS011;49638;47.526;10.028;2022-09-03T10:46:17;1.90;;;1.80;;
63492;SDS011;49638;47.526;10.028;2022-09-03T10:53:26;3.70;;;1.80;;
63492;SDS011;49638;47.526;10.028;2022-09-03T10:57:02;2.20;;;2.00;;
63492;SDS011;49638;47.526;10.028;2022-09-03T11:00:35;1.85;;;1.75;;
63492;SDS011;49638;47.526;10.028;2022-09-03T11:11:50;2.70;;;1.90;;
63492;SDS011;49638;47.526;10.028;2022-09-03T11:15:02;2.17;;;1.98;;
63492;SDS011;49638;47.526;10.028;2022-09-03T11:21:25;2.22;;;2.00;;
63492;SDS011;49638;47.526;10.028;2022-09-03T11:24:27;2.25;;;1.90;;
63492;SDS011;49638;47.526;10.028;2022-09-03T11:34:13;1.77;;;1.67;;
63492;SDS011;49638;47.526;10.028;2022-09-03T11:37:27;3.42;;;2.05;;
63492;SDS011;49638;47.526;10.028;2022-09-03T11:40:33;2.97;;;2.33;;
63492;SDS011;49638;47.526;10.028;2022-09-03T11:43:35;3.88;;;2.20;;
63492;SDS011;49638;47.526;10.028;2022-09-03T11:46:38;2.30;;;2.10;;
63492;SDS011;49638;47.526;10.028;2022-09-03T11:49:43;1.70;;;1.60;;
63492;SDS011;49638;47.526;10.028;2022-09-03T11:52:51;1.67;;;1.58;;
63492;SDS011;49638;47.526;10.028;2022-09-03T11:56:26;2.20;;;2.00;;
63492;SDS011;49638;47.526;10.028;2022-09-03T11:59:23;3.78;;;2.22;;
63492;SDS011;49638;47.526;10.028;2022-09-03T12:02:29;2.85;;;2.60;;
63492;SDS011;49638;47.526;10.028;2022-09-03T12:05:46;4.95;;;2.30;;
63492;SDS011;49638;47.526;10.028;2022-09-03T12:12:09;2.60;;;2.00;;
63492;SDS011;49638;47.526;10.028;2022-09-03T12:15:39;3.63;;;2.25;;
63492;SDS011;49638;47.526;10.028;2022-09-03T12:19:17;3.90;;;2.30;;
63492;SDS011;49638;47.526;10.028;2022-09-03T12:22:27;3.65;;;2.08;;
63492;SDS011;49638;47.526;10.028;2022-09-03T12:25:28;3.40;;;2.00;;
63492;SDS011;49638;47.526;10.028;2022-09-03T12:28:29;4.28;;;2.10;;
63492;SDS011;49638;47.526;10.028;2022-09-03T12:31:41;2.17;;;1.83;;
63492;SDS011;49638;47.526;10.028;2022-09-03T12:34:43;2.67;;;1.75;;
63492;SDS011;49638;47.526;10.028;2022-09-03T12:37:44;4.45;;;1.83;;
63492;SDS011;49638;47.526;10.028;2022-09-03T12:40:44;2.33;;;1.63;;
63492;SDS011;49638;47.526;10.028;2022-09-03T12:43:49;3.75;;;2.10;;
63492;SDS011;49638;47.526;10.028;2022-09-03T12:46:58;3.97;;;1.80;;
63492;SDS011;49638;47.526;10.028;2022-09-03T12:50:04;2.55;;;1.90;;
63492;SDS011;49638;47.526;10.028;2022-09-03T12:53:11;1.85;;;1.50;;
63492;SDS011;49638;47.526;10.028;2022-09-03T12:56:13;1.80;;;1.27;;
63492;SDS011;49638;47.526;10.028;2022-09-03T12:59:15;1.48;;;1.38;;
63492;SDS011;49638;47.526;10.028;2022-09-03T13:02:25;1.70;;;1.15;;
63492;SDS011;49638;47.526;10.028;2022-09-03T13:05:35;1.83;;;1.23;;
63492;SDS011;49638;47.526;10.028;2022-09-03T13:08:44;4.50;;;2.83;;
63492;SDS011;49638;47.526;10.028;2022-09-03T13:11:48;1.25;;;1.13;;
63492;SDS011;49638;47.526;10.028;2022-09-03T13:14:51;1.35;;;1.00;;
63492;SDS011;49638;47.526;10.028;2022-09-03T13:17:56;1.10;;;1.00;;
63492;SDS011;49638;47.526;10.028;2022-09-03T13:21:09;0.90;;;0.90;;
63492;SDS011;49638;47.526;10.028;2022-09-03T13:31:40;0.90;;;0.90;;
63492;SDS011;49638;47.526;10.028;2022-09-03T13:34:49;2.05;;;1.48;;
63492;SDS011;49638;47.526;10.028;2022-09-03T13:47:58;1.33;;;1.10;;
63492;SDS011;49638;47.526;10.028;2022-09-03T13:54:41;1.55;;;1.20;;
63492;SDS011;49638;47.526;10.028;2022-09-03T13:57:52;2.25;;;1.25;;
63492;SDS011;49638;47.526;10.028;2022-09-03T14:03:57;1.43;;;1.33;;
63492;SDS011;49638;47.526;10.028;2022-09-03T14:07:10;6.13;;;1.90;;
63492;SDS011;49638;47.526;10.028;2022-09-03T14:10:20;1.50;;;1.40;;
63492;SDS011;49638;47.526;10.028;2022-09-03T14:13:51;1.70;;;1.60;;
63492;SDS011;49638;47.526;10.028;2022-09-03T14:16:55;2.10;;;1.50;;
63492;SDS011;49638;47.526;10.028;2022-09-03T14:23:23;2.85;;;1.67;;
63492;SDS011;49638;47.526;10.028;2022-09-03T14:26:35;1.60;;;1.50;;
63492;SDS011;49638;47.526;10.028;2022-09-03T14:29:37;2.15;;;1.75;;
63492;SDS011;49638;47.526;10.028;2022-09-03T14:36:02;1.65;;;1.55;;
63492;SDS011;49638;47.526;10.028;2022-09-03T14:42:51;2.45;;;1.40;;
63492;SDS011;49638;47.526;10.028;2022-09-03T14:46:46;1.20;;;1.10;;
63492;SDS011;49638;47.526;10.028;2022-09-03T14:59:51;1.58;;;1.13;;
63492;SDS011;49638;47.526;10.028;2022-09-03T15:03:08;1.65;;;1.25;;
63492;SDS011;49638;47.526;10.028;2022-09-03T15:06:18;1.42;;;1.27;;
63492;SDS011;49638;47.526;10.028;2022-09-03T15:09:31;1.30;;;1.20;;
63492;SDS011;49638;47.526;10.028;2022-09-03T15:12:43;1.38;;;1.20;;
63492;SDS011;49638;47.526;10.028;2022-09-03T15:25:29;1.20;;;1.10;;
63492;SDS011;49638;47.526;10.028;2022-09-03T15:35:28;1.65;;;1.20;;
63492;SDS011;49638;47.526;10.028;2022-09-03T15:38:44;1.50;;;1.20;;
63492;SDS011;49638;47.526;10.028;2022-09-03T15:41:50;2.25;;;1.27;;
63492;SDS011;49638;47.526;10.028;2022-09-03T15:45:01;1.45;;;1.35;;
63492;SDS011;49638;47.526;10.028;2022-09-03T15:51:44;2.45;;;1.27;;
63492;SDS011;49638;47.526;10.028;2022-09-03T16:01:20;1.45;;;1.35;;
63492;SDS011;49638;47.526;10.028;2022-09-03T16:17:08;1.92;;;1.30;;
63492;SDS011;49638;47.526;10.028;2022-09-03T16:20:21;2.20;;;1.40;;
63492;SDS011;49638;47.526;10.028;2022-09-03T16:23:28;1.33;;;1.20;;
63492;SDS011;49638;47.526;10.028;2022-09-03T16:26:36;1.50;;;1.40;;
63492;SDS011;49638;47.526;10.028;2022-09-03T16:29:52;1.60;;;1.40;;
63492;SDS011;49638;47.526;10.028;2022-09-03T16:33:09;1.40;;;1.30;;
63492;SDS011;49638;47.526;10.028;2022-09-03T16:53:12;1.77;;;1.60;;
63492;SDS011;49638;47.526;10.028;2022-09-03T16:59:46;2.78;;;1.58;;
63492;SDS011;49638;47.526;10.028;2022-09-03T17:13:34;1.45;;;1.35;;
63492;SDS011;49638;47.526;10.028;2022-09-03T17:16:51;1.58;;;1.30;;
63492;SDS011;49638;47.526;10.028;2022-09-03T17:20:12;2.00;;;1.52;;
63492;SDS011;49638;47.526;10.028;2022-09-03T17:33:56;2.65;;;1.50;;
63492;SDS011;49638;47.526;10.028;2022-09-03T17:37:48;1.85;;;1.42;;
63492;SDS011;49638;47.526;10.028;2022-09-03T17:44:17;3.33;;;1.50;;
63492;SDS011;49638;47.526;10.028;2022-09-03T17:47:41;1.80;;;1.50;;
63492;SDS011;49638;47.526;10.028;2022-09-03T17:50:50;3.25;;;1.70;;
63492;SDS011;49638;47.526;10.028;2022-09-03T17:57:45;1.90;;;1.70;;
63492;SDS011;49638;47.526;10.028;2022-09-03T18:04:17;2.95;;;1.70;;
63492;SDS011;49638;47.526;10.028;2022-09-03T18:07:49;3.75;;;1.65;;
63492;SDS011;49638;47.526;10.028;2022-09-03T18:10:57;2.55;;;1.80;;
63492;SDS011;49638;47.526;10.028;2022-09-03T18:14:21;1.70;;;1.60;;
63492;SDS011;49638;47.526;10.028;2022-09-03T18:17:32;3.75;;;1.70;;
63492;SDS011;49638;47.526;10.028;2022-09-03T18:20:40;2.47;;;1.70;;
63492;SDS011;49638;47.526;10.028;2022-09-03T18:24:16;2.33;;;1.73;;
63492;SDS011;49638;47.526;10.028;2022-09-03T18:27:53;2.28;;;1.77;;
63492;SDS011;49638;47.526;10.028;2022-09-03T18:31:15;2.45;;;1.80;;
63492;SDS011;49638;47.526;10.028;2022-09-03T18:34:35;2.38;;;1.80;;
63492;SDS011;49638;47.526;10.028;2022-09-03T18:37:54;2.25;;;2.05;;
63492;SDS011;49638;47.526;10.028;2022-09-03T18:49:17;2.25;;;2.00;;
63492;SDS011;49638;47.526;10.028;2022-09-03T18:52:28;2.38;;;2.13;;
63492;SDS011;49638;47.526;10.028;2022-09-03T18:56:18;3.90;;;2.25;;
63492;SDS011;49638;47.526;10.028;2022-09-03T19:00:09;2.55;;;1.70;;
63492;SDS011;49638;47.526;10.028;2022-09-03T19:03:38;2.67;;;2.03;;
63492;SDS011;49638;47.526;10.028;2022-09-03T19:07:10;2.53;;;1.80;;
63492;SDS011;49638;47.526;10.028;2022-09-03T19:14:14;2.60;;;1.85;;
63492;SDS011;49638;47.526;10.028;2022-09-03T19:17:53;2.55;;;1.73;;
63492;SDS011;49638;47.526;10.028;2022-09-03T19:21:37;3.15;;;1.80;;
63492;SDS011;49638;47.526;10.028;2022-09-03T19:25:09;2.95;;;2.33;;
63492;SDS011;49638;47.526;10.028;2022-09-03T19:28:31;2.53;;;2.13;;
63492;SDS011;49638;47.526;10.028;2022-09-03T19:32:02;4.90;;;2.75;;
63492;SDS011;49638;47.526;10.028;2022-09-03T19:35:31;3.83;;;2.40;;
63492;SDS011;49638;47.526;10.028;2022-09-03T19:39:09;2.70;;;2.20;;
63492;SDS011;49638;47.526;10.028;2022-09-03T19:46:49;2.63;;;2.10;;
63492;SDS011;49638;47.526;10.028;2022-09-03T19:50:13;2.67;;;2.17;;
63492;SDS011;49638;47.526;10.028;2022-09-03T19:53:45;2.72;;;2.30;;
63492;SDS011;49638;47.526;10.028;2022-09-03T19:57:05;3.85;;;2.25;;
63492;SDS011;49638;47.526;10.028;2022-09-03T20:00:26;2.50;;;2.10;;
63492;SDS011;49638;47.526;10.028;2022-09-03T20:03:46;5.75;;;2.30;;
63492;SDS011;49638;47.526;10.028;2022-09-03T20:07:07;3.33;;;2.20;;
63492;SDS011;49638;47.526;10.028;2022-09-03T20:10:27;5.18;;;2.25;;
63492;SDS011;49638;47.526;10.028;2022-09-03T20:13:27;3.03;;;2.45;;
63492;SDS011;49638;47.526;10.028;2022-09-03T20:20:35;2.30;;;2.00;;
63492;SDS011;49638;47.526;10.028;2022-09-03T20:23:56;3.75;;;2.08;;
63492;SDS011;49638;47.526;10.028;2022-09-03T20:33:27;4.30;;;2.40;;
63492;SDS011;49638;47.526;10.028;2022-09-03T20:53:00;3.65;;;2.25;;
63492;SDS011;49638;47.526;10.028;2022-09-03T20:56:08;4.00;;;2.20;;
63492;SDS011;49638;47.526;10.028;2022-09-03T21:06:37;4.15;;;2.20;;
63492;SDS011;49638;47.526;10.028;2022-09-03T21:09:50;2.75;;;2.28;;
63492;SDS011;49638;47.526;10.028;2022-09-03T21:16:23;2.28;;;2.08;;
63492;SDS011;49638;47.526;10.028;2022-09-03T21:23:19;2.15;;;1.90;;
63492;SDS011;49638;47.526;10.028;2022-09-03T21:26:27;3.75;;;2.42;;
63492;SDS011;49638;47.526;10.028;2022-09-03T21:30:13;3.17;;;2.00;;
63492;SDS011;49638;47.526;10.028;2022-09-03T21:33:01;4.65;;;2.10;;
63492;SDS011;49638;47.526;10.028;2022-09-03T21:39:14;3.15;;;2.10;;
63492;SDS011;49638;47.526;10.028;2022-09-03T21:49:08;4.03;;;1.95;;
63492;SDS011;49638;47.526;10.028;2022-09-03T21:52:12;4.50;;;1.90;;
63492;SDS011;49638;47.526;10.028;2022-09-03T21:58:22;1.98;;;1.60;;
63492;SDS011;49638;47.526;10.028;2022-09-03T22:01:46;2.30;;;1.80;;
63492;SDS011;49638;47.526;10.028;2022-09-03T22:04:49;2.38;;;1.70;;
63492;SDS011;49638;47.526;10.028;2022-09-03T22:11:03;2.67;;;1.92;;
63492;SDS011;49638;47.526;10.028;2022-09-03T22:14:11;3.83;;;2.00;;
63492;SDS011;49638;47.526;10.028;2022-09-03T22:17:36;3.17;;;2.28;;
63492;SDS011;49638;47.526;10.028;2022-09-03T22:20:43;3.17;;;2.00;;
63492;SDS011;49638;47.526;10.028;2022-09-03T22:30:57;2.13;;;1.67;;
63492;SDS011;49638;47.526;10.028;2022-09-03T22:50:35;2.00;;;1.80;;
63492;SDS011;49638;47.526;10.028;2022-09-03T22:54:02;2.67;;;1.65;;
63492;SDS011;49638;47.526;10.028;2022-09-03T22:57:06;2.05;;;1.65;;
63492;SDS011;49638;47.526;10.028;2022-09-03T23:00:09;2.78;;;1.65;;
63492;SDS011;49638;47.526;10.028;2022-09-03T23:03:12;1.92;;;1.75;;
63492;SDS011;49638;47.526;10.028;2022-09-03T23:06:23;3.17;;;2.00;;
63492;SDS011;49638;47.526;10.028;2022-09-03T23:09:32;2.22;;;2.03;;
63492;SDS011;49638;47.526;10.028;2022-09-03T23:12:41;2.53;;;1.95;;
63492;SDS011;49638;47.526;10.028;2022-09-03T23:15:46;3.38;;;1.98;;
63492;SDS011;49638;47.526;10.028;2022-09-03T23:18:56;2.92;;;2.08;;
63492;SDS011;49638;47.526;10.028;2022-09-03T23:22:02;2.75;;;2.17;;
63492;SDS011;49638;47.526;10.028;2022-09-03T23:25:13;4.65;;;2.45;;
63492;SDS011;49638;47.526;10.028;2022-09-03T23:28:26;2.53;;;2.13;;
63492;SDS011;49638;47.526;10.028;2022-09-03T23:31:31;2.10;;;1.80;;
63492;SDS011;49638;47.526;10.028;2022-09-03T23:34:31;2.67;;;2.05;;
63492;SDS011;49638;47.526;10.028;2022-09-03T23:37:35;2.10;;;1.90;;
63492;SDS011;49638;47.526;10.028;2022-09-03T23:44:02;2.50;;;1.70;;
63492;SDS011;49638;47.526;10.028;2022-09-03T23:50:44;3.17;;;1.80;;
63492;SDS011;49638;47.526;10.028;2022-09-03T23:54:11;3.47;;;1.90;;
63492;SDS011;49638;47.526;10.028;2022-09-03T23:57:23;3.25;;;2.05;;
